Wega — DBBC — position and weather

sailwx.info

Track history (hours):
 
Tides and Currents Weather Stations Pressure Air Temp Water Temp Dewpoint Dewpoint Depression Visibility Wind Speed Wind Dir Waves Ship Positions

Oceanographic research ship Wega (Germany)

Detailed information on ship capabilities available from University of Delaware's Ocean Information Center.

Last reported at 2020-Mar-31 11:30 UTC. Time now 2020-Mar-31 13:31 UTC.
Position N 53°52' E 007°21'.

Length 52.1 m; beam 11.4 m; draft 3.5 m.

Type: Law enforcement. MMSI: 211205970.

Date/timePositionNaut miles runAvg speedWind from/ knotsBaromVisibWave heightAir tempDewpointWater temp
2020-Mar-31 11:30N 53°52' E 007°21'0 0.4
2020-Mar-31 11:00N 53°52' E 007°22'2 1.6
2020-Mar-31 10:01N 53°52' E 007°24'0 0.9
2020-Mar-31 09:31N 53°52' E 007°24'1 0.6
2020-Mar-31 08:30N 53°52' E 007°25'9 8.8
2020-Mar-31 07:30N 53°52' E 007°39'1010.1
2020-Mar-31 06:30N 53°52' E 007°57'8 4.8
2020-Mar-31 04:56N 53°48' E 008°07'0 0.1
2020-Mar-31 04:29N 53°48' E 008°07'0 0.0
2020-Mar-31 03:29N 53°48' E 008°07'0 0.0
2020-Mar-31 00:59N 53°48' E 008°08'0 0.0
2020-Mar-30 23:23N 53°48' E 008°07'0 0.0
2020-Mar-30 21:29N 53°48' E 008°07'0 0.1
2020-Mar-30 20:59N 53°48' E 008°07'0 0.0
2020-Mar-30 17:29N 53°48' E 008°07'2 2.5
2020-Mar-30 16:30N 53°46' E 008°11'2010.0
2020-Mar-30 14:30N 53°32' E 008°35'0 0.8
2020-Mar-30 14:00N 53°32' E 008°35'0 0.2
2020-Mar-30 11:59N 53°31' E 008°35'0 0.0
2020-Mar-30 10:29N 53°31' E 008°35'0 0.0
2020-Mar-30 08:29N 53°31' E 008°35'0 0.0
2020-Mar-30 07:59N 53°31' E 008°35'0 0.0
2020-Mar-30 05:59N 53°31' E 008°35'0 0.0
2020-Mar-30 05:26N 53°31' E 008°35'0 0.0
2020-Mar-30 04:29N 53°31' E 008°35'0 0.0
2020-Mar-30 01:59N 53°31' E 008°35'0 0.0
2020-Mar-30 01:29N 53°31' E 008°35'0 0.0
2020-Mar-29 22:29N 53°31' E 008°35'0 0.0
2020-Mar-29 21:29N 53°31' E 008°35'0 0.0
2020-Mar-29 20:29N 53°31' E 008°35'0 0.0
2020-Mar-29 19:29N 53°31' E 008°35'0 0.0
2020-Mar-29 18:59N 53°31' E 008°35'0 0.0
2020-Mar-29 17:59N 53°31' E 008°35'0 0.0
2020-Mar-29 17:29N 53°31' E 008°35'0 0.0
2020-Mar-29 16:28N 53°31' E 008°35'0 0.0
2020-Mar-29 14:28N 53°31' E 008°35'0 0.0
2020-Mar-29 13:30N 53°31' E 008°35'0 0.0
2020-Mar-29 13:00N 53°31' E 008°35'0 0.0
2020-Mar-29 12:30N 53°31' E 008°35'0 0.0
2020-Mar-29 11:30N 53°31' E 008°35'0 0.0
2020-Mar-29 09:00N 53°31' E 008°35'0 0.0
2020-Mar-29 03:30N 53°31' E 008°35'0 0.0
2020-Mar-29 02:31N 53°31' E 008°35'0 0.0
2020-Mar-29 00:00N 53°31' E 008°35'0 0.0
2020-Mar-28 23:31N 53°31' E 008°35'0 0.0
2020-Mar-28 21:00N 53°31' E 008°35'0 0.0
2020-Mar-28 19:30N 53°31' E 008°35'0 0.0
2020-Mar-28 15:30N 53°31' E 008°35'0 0.0
2020-Mar-28 12:30N 53°31' E 008°35'0 0.0
2020-Mar-28 12:00N 53°31' E 008°35'0 0.0
2020-Mar-28 11:30N 53°31' E 008°35'0 0.0
2020-Mar-28 08:30N 53°31' E 008°35'0 0.0
2020-Mar-28 06:30N 53°31' E 008°35'0 0.0
2020-Mar-28 06:00N 53°31' E 008°35'0 0.0
2020-Mar-28 03:01N 53°31' E 008°35'0 0.0
2020-Mar-28 02:28N 53°31' E 008°35'0 0.0
2020-Mar-28 01:58N 53°31' E 008°35'0 0.0
2020-Mar-28 01:01N 53°31' E 008°35'0 0.0
2020-Mar-27 22:28N 53°31' E 008°35'0 0.0
2020-Mar-27 21:28N 53°31' E 008°35'0 0.0
2020-Mar-27 16:58N 53°31' E 008°35'0 0.0
2020-Mar-27 16:28N 53°31' E 008°35'0 0.0
2020-Mar-27 16:01N 53°31' E 008°35'0 0.0
2020-Mar-27 14:58N 53°31' E 008°35'0 0.0
2020-Mar-27 13:28N 53°31' E 008°35'0 0.0
2020-Mar-27 12:28N 53°31' E 008°35'0 0.0
2020-Mar-27 11:58N 53°31' E 008°35'0 0.0
2020-Mar-27 10:31N 53°31' E 008°35'0 0.0
2020-Mar-27 09:58N 53°31' E 008°35'0 0.0
2020-Mar-27 07:59N 53°31' E 008°35'0 0.0
2020-Mar-27 05:59N 53°31' E 008°35'0 0.0
2020-Mar-27 03:29N 53°31' E 008°35'0 0.0
2020-Mar-26 21:29N 53°31' E 008°35'0 0.0
2020-Mar-26 20:59N 53°31' E 008°35'0 0.0
2020-Mar-26 17:56N 53°31' E 008°35'0 0.0
2020-Mar-26 17:29N 53°31' E 008°35'0 0.0
2020-Mar-26 14:59N 53°31' E 008°35'7 4.8
2020-Mar-26 13:30N 53°37' E 008°28'2811.3
2020-Mar-26 11:00N 53°52' E 007°48'1211.8
2020-Mar-26 10:00N 53°51' E 007°28'611.9
2020-Mar-26 09:30N 53°51' E 007°18'15 9.9
2020-Mar-26 08:00N 53°58' E 006°56'4 8.0
2020-Mar-26 07:30N 54°02' E 006°56'0 0.0
2020-Mar-26 07:01N 54°02' E 006°56'0 0.3
2020-Mar-26 06:31N 54°02' E 006°56'0 0.5
2020-Mar-26 06:00N 54°02' E 006°56'1 0.1
2020-Mar-25 13:30N 54°01' E 006°54'0 0.9
2020-Mar-25 13:00N 54°01' E 006°55'0 0.1
2020-Mar-25 10:30N 54°01' E 006°55'1 0.6
2020-Mar-25 08:31N 54°02' E 006°55'1 0.4
2020-Mar-25 05:30N 54°01' E 006°55'2 0.4
2020-Mar-25 01:29N 54°03' E 006°55'0 0.0
2020-Mar-25 00:58N 54°03' E 006°55'0 0.0
2020-Mar-25 00:28N 54°03' E 006°55'0 0.0
2020-Mar-24 22:58N 54°03' E 006°55'0 0.0
2020-Mar-24 21:28N 54°03' E 006°55'0 0.0
2020-Mar-24 19:58N 54°03' E 006°55'0 0.0
2020-Mar-24 19:28N 54°03' E 006°55'0 0.0
2020-Mar-24 08:28N 54°03' E 006°55'0 0.0
2020-Mar-24 07:58N 54°03' E 006°55'0 0.0
2020-Mar-24 07:28N 54°03' E 006°55'0 0.0
2020-Mar-24 05:28N 54°03' E 006°55'0 0.0
2020-Mar-24 04:28N 54°03' E 006°55'0 0.0
2020-Mar-24 01:28N 54°03' E 006°55'0 0.0
2020-Mar-24 00:28N 54°03' E 006°55'0 0.0
2020-Mar-23 23:28N 54°03' E 006°55'0 0.0
2020-Mar-23 20:58N 54°03' E 006°55'0 0.0
2020-Mar-23 19:28N 54°03' E 006°55'1 0.2
2020-Mar-23 13:30N 54°01' E 006°55'0 0.4
2020-Mar-23 13:01N 54°01' E 006°55'33 1.4
2020-Mar-22 13:00N 54°12' E 007°48'4 3.8
2020-Mar-22 12:00N 54°10' E 007°54'2106.0
2020-Mar-22 12:00N 54°12' E 007°54'0 0.0 110 / 21
2020-Mar-22 11:00N 54°12' E 007°54'0 0.0 110
2020-Mar-22 10:00N 54°12' E 007°54'0 0.0 120 / 211037.7 3.0-5.3 6.6
2020-Mar-22 09:00N 54°12' E 007°54'2 3.1 130 / 161037.4 3.1-3.3 6.5
2020-Mar-22 08:30N 54°10' E 007°54'0 0.0
2020-Mar-22 06:00N 54°10' E 007°54'0 0.0
2020-Mar-22 05:00N 54°10' E 007°54'0 0.0
2020-Mar-22 03:28N 54°10' E 007°54'0 0.0
2020-Mar-22 02:28N 54°10' E 007°54'0 0.0
2020-Mar-21 23:29N 54°10' E 007°54'0 0.0
2020-Mar-21 22:28N 54°10' E 007°54'0 0.0
2020-Mar-21 20:28N 54°10' E 007°54'0 0.0
2020-Mar-21 19:28N 54°10' E 007°54'0 0.0
2020-Mar-21 17:58N 54°10' E 007°54'0 0.0
2020-Mar-21 17:28N 54°10' E 007°54'0 0.0
2020-Mar-21 16:28N 54°10' E 007°54'  
Track history (hours):
 
Tides and Currents Weather Stations Pressure Air Temp Water Temp Dewpoint Dewpoint Depression Visibility Wind Speed Wind Dir Waves Ship Positions

Oceanographic research ship Wega (Germany)

Detailed information on ship capabilities available from University of Delaware's Ocean Information Center.

Last reported at 2020-Mar-31 11:30 UTC. Time now 2020-Mar-31 13:31 UTC.
Position N 53°52' E 007°21'.

Length 52.1 m; beam 11.4 m; draft 3.5 m.

Type: Law enforcement. MMSI: 211205970.

Date/timePositionNaut miles runAvg speedWind from/ knotsBaromVisibWave heightAir tempDewpointWater temp
2020-Mar-31 11:30N 53°52' E 007°21'0 0.4
2020-Mar-31 11:00N 53°52' E 007°22'2 1.6
2020-Mar-31 10:01N 53°52' E 007°24'0 0.9
2020-Mar-31 09:31N 53°52' E 007°24'1 0.6
2020-Mar-31 08:30N 53°52' E 007°25'9 8.8
2020-Mar-31 07:30N 53°52' E 007°39'1010.1
2020-Mar-31 06:30N 53°52' E 007°57'8 4.8
2020-Mar-31 04:56N 53°48' E 008°07'0 0.1
2020-Mar-31 04:29N 53°48' E 008°07'0 0.0
2020-Mar-31 03:29N 53°48' E 008°07'0 0.0
2020-Mar-31 00:59N 53°48' E 008°08'0 0.0
2020-Mar-30 23:23N 53°48' E 008°07'0 0.0
2020-Mar-30 21:29N 53°48' E 008°07'0 0.1
2020-Mar-30 20:59N 53°48' E 008°07'0 0.0
2020-Mar-30 17:29N 53°48' E 008°07'2 2.5
2020-Mar-30 16:30N 53°46' E 008°11'2010.0
2020-Mar-30 14:30N 53°32' E 008°35'0 0.8
2020-Mar-30 14:00N 53°32' E 008°35'0 0.2
2020-Mar-30 11:59N 53°31' E 008°35'0 0.0
2020-Mar-30 10:29N 53°31' E 008°35'0 0.0
2020-Mar-30 08:29N 53°31' E 008°35'0 0.0
2020-Mar-30 07:59N 53°31' E 008°35'0 0.0
2020-Mar-30 05:59N 53°31' E 008°35'0 0.0
2020-Mar-30 05:26N 53°31' E 008°35'0 0.0
2020-Mar-30 04:29N 53°31' E 008°35'0 0.0
2020-Mar-30 01:59N 53°31' E 008°35'0 0.0
2020-Mar-30 01:29N 53°31' E 008°35'0 0.0
2020-Mar-29 22:29N 53°31' E 008°35'0 0.0
2020-Mar-29 21:29N 53°31' E 008°35'0 0.0
2020-Mar-29 20:29N 53°31' E 008°35'0 0.0
2020-Mar-29 19:29N 53°31' E 008°35'0 0.0
2020-Mar-29 18:59N 53°31' E 008°35'0 0.0
2020-Mar-29 17:59N 53°31' E 008°35'0 0.0
2020-Mar-29 17:29N 53°31' E 008°35'0 0.0
2020-Mar-29 16:28N 53°31' E 008°35'0 0.0
2020-Mar-29 14:28N 53°31' E 008°35'0 0.0
2020-Mar-29 13:30N 53°31' E 008°35'0 0.0
2020-Mar-29 13:00N 53°31' E 008°35'0 0.0
2020-Mar-29 12:30N 53°31' E 008°35'0 0.0
2020-Mar-29 11:30N 53°31' E 008°35'0 0.0
2020-Mar-29 09:00N 53°31' E 008°35'0 0.0
2020-Mar-29 03:30N 53°31' E 008°35'0 0.0
2020-Mar-29 02:31N 53°31' E 008°35'0 0.0
2020-Mar-29 00:00N 53°31' E 008°35'0 0.0
2020-Mar-28 23:31N 53°31' E 008°35'0 0.0
2020-Mar-28 21:00N 53°31' E 008°35'0 0.0
2020-Mar-28 19:30N 53°31' E 008°35'0 0.0
2020-Mar-28 15:30N 53°31' E 008°35'0 0.0
2020-Mar-28 12:30N 53°31' E 008°35'0 0.0
2020-Mar-28 12:00N 53°31' E 008°35'0 0.0
2020-Mar-28 11:30N 53°31' E 008°35'0 0.0
2020-Mar-28 08:30N 53°31' E 008°35'0 0.0
2020-Mar-28 06:30N 53°31' E 008°35'0 0.0
2020-Mar-28 06:00N 53°31' E 008°35'0 0.0
2020-Mar-28 03:01N 53°31' E 008°35'0 0.0
2020-Mar-28 02:28N 53°31' E 008°35'0 0.0
2020-Mar-28 01:58N 53°31' E 008°35'0 0.0
2020-Mar-28 01:01N 53°31' E 008°35'0 0.0
2020-Mar-27 22:28N 53°31' E 008°35'0 0.0
2020-Mar-27 21:28N 53°31' E 008°35'0 0.0
2020-Mar-27 16:58N 53°31' E 008°35'0 0.0
2020-Mar-27 16:28N 53°31' E 008°35'0 0.0
2020-Mar-27 16:01N 53°31' E 008°35'0 0.0
2020-Mar-27 14:58N 53°31' E 008°35'0 0.0
2020-Mar-27 13:28N 53°31' E 008°35'0 0.0
2020-Mar-27 12:28N 53°31' E 008°35'0 0.0
2020-Mar-27 11:58N 53°31' E 008°35'0 0.0
2020-Mar-27 10:31N 53°31' E 008°35'0 0.0
2020-Mar-27 09:58N 53°31' E 008°35'0 0.0
2020-Mar-27 07:59N 53°31' E 008°35'0 0.0
2020-Mar-27 05:59N 53°31' E 008°35'0 0.0
2020-Mar-27 03:29N 53°31' E 008°35'0 0.0
2020-Mar-26 21:29N 53°31' E 008°35'0 0.0
2020-Mar-26 20:59N 53°31' E 008°35'0 0.0
2020-Mar-26 17:56N 53°31' E 008°35'0 0.0
2020-Mar-26 17:29N 53°31' E 008°35'0 0.0
2020-Mar-26 14:59N 53°31' E 008°35'7 4.8
2020-Mar-26 13:30N 53°37' E 008°28'2811.3
2020-Mar-26 11:00N 53°52' E 007°48'1211.8
2020-Mar-26 10:00N 53°51' E 007°28'611.9
2020-Mar-26 09:30N 53°51' E 007°18'15 9.9
2020-Mar-26 08:00N 53°58' E 006°56'4 8.0
2020-Mar-26 07:30N 54°02' E 006°56'0 0.0
2020-Mar-26 07:01N 54°02' E 006°56'0 0.3
2020-Mar-26 06:31N 54°02' E 006°56'0 0.5
2020-Mar-26 06:00N 54°02' E 006°56'1 0.1
2020-Mar-25 13:30N 54°01' E 006°54'0 0.9
2020-Mar-25 13:00N 54°01' E 006°55'0 0.1
2020-Mar-25 10:30N 54°01' E 006°55'1 0.6
2020-Mar-25 08:31N 54°02' E 006°55'1 0.4
2020-Mar-25 05:30N 54°01' E 006°55'2 0.4
2020-Mar-25 01:29N 54°03' E 006°55'0 0.0
2020-Mar-25 00:58N 54°03' E 006°55'0 0.0
2020-Mar-25 00:28N 54°03' E 006°55'0 0.0
2020-Mar-24 22:58N 54°03' E 006°55'0 0.0
2020-Mar-24 21:28N 54°03' E 006°55'0 0.0
2020-Mar-24 19:58N 54°03' E 006°55'0 0.0
2020-Mar-24 19:28N 54°03' E 006°55'0 0.0
2020-Mar-24 08:28N 54°03' E 006°55'0 0.0
2020-Mar-24 07:58N 54°03' E 006°55'0 0.0
2020-Mar-24 07:28N 54°03' E 006°55'0 0.0
2020-Mar-24 05:28N 54°03' E 006°55'0 0.0
2020-Mar-24 04:28N 54°03' E 006°55'0 0.0
2020-Mar-24 01:28N 54°03' E 006°55'0 0.0
2020-Mar-24 00:28N 54°03' E 006°55'0 0.0
2020-Mar-23 23:28N 54°03' E 006°55'0 0.0
2020-Mar-23 20:58N 54°03' E 006°55'0 0.0
2020-Mar-23 19:28N 54°03' E 006°55'1 0.2
2020-Mar-23 13:30N 54°01' E 006°55'0 0.4
2020-Mar-23 13:01N 54°01' E 006°55'33 1.4
2020-Mar-22 13:00N 54°12' E 007°48'4 3.8
2020-Mar-22 12:00N 54°10' E 007°54'2106.0
2020-Mar-22 12:00N 54°12' E 007°54'0 0.0 110 / 21
2020-Mar-22 11:00N 54°12' E 007°54'0 0.0 110
2020-Mar-22 10:00N 54°12' E 007°54'0 0.0 120 / 211037.7 3.0-5.3 6.6
2020-Mar-22 09:00N 54°12' E 007°54'2 3.1 130 / 161037.4 3.1-3.3 6.5
2020-Mar-22 08:30N 54°10' E 007°54'0 0.0
2020-Mar-22 06:00N 54°10' E 007°54'0 0.0
2020-Mar-22 05:00N 54°10' E 007°54'0 0.0
2020-Mar-22 03:28N 54°10' E 007°54'0 0.0
2020-Mar-22 02:28N 54°10' E 007°54'0 0.0
2020-Mar-21 23:29N 54°10' E 007°54'0 0.0
2020-Mar-21 22:28N 54°10' E 007°54'0 0.0
2020-Mar-21 20:28N 54°10' E 007°54'0 0.0
2020-Mar-21 19:28N 54°10' E 007°54'0 0.0
2020-Mar-21 17:58N 54°10' E 007°54'0 0.0
2020-Mar-21 17:28N 54°10' E 007°54'0 0.0
2020-Mar-21 16:28N 54°10' E 007°54'  

Dump ship's entire track history